EmailTwitter


Observations de surface / France / LFPO (07149)

Régions: Québec | Canada | États-Unis | Europe | France | UK | Ailleurs
Station
Affichage
Infos & localisation pour LFPO (07149) | Aide pour décoder les METARs

Observations prises le 2018-12-15 à 01H30 UTC à PARIS/ORLY, FR (LFPO)

Etat du ciel: partiellement nuageux.

Température: 0.0 Celsius

Point de rosée: -5.0 Celsius

Humidité relative: 69%

Vents: Sud-est à 6 km/h ou 3 noeuds.

Pression au niveau moyen de la mer: 102.30 kilopascals.

Visibilité horizontale: 6.21 milles terrestres ou 9.94 kilomètres.

Hauteur du plafond: 914 mètres ( 3000 pieds ).

Observation METAR:

LFPO 150130Z 12003KT 9999 BKN030 M00/M05 Q1023 NOSIG=